createdAt,value
2023-05-19T00:00:39.774Z,101084.16
2023-05-19T00:02:05.989Z,101097.84
2023-05-19T00:03:29.239Z,101093.63
2023-05-19T00:04:52.008Z,101094.66
2023-05-19T00:06:13.898Z,101094.97
2023-05-19T00:07:39.440Z,101093.78
2023-05-19T00:09:04.174Z,101095.63
2023-05-19T00:10:30.584Z,101095.63
2023-05-19T00:11:59.676Z,101092.41
2023-05-19T00:13:23.304Z,101084.47
2023-05-19T00:14:45.006Z,101095.25
2023-05-19T00:16:08.139Z,101097.94
2023-05-19T00:17:34.525Z,101090.19
2023-05-19T00:18:59.746Z,101093.38
2023-05-19T00:20:25.848Z,101104.19
2023-05-19T00:21:47.185Z,101093.72
2023-05-19T00:23:09.731Z,101105.53
2023-05-19T00:24:31.929Z,101103.84
2023-05-19T00:25:54.186Z,101104.16
2023-05-19T00:27:16.623Z,101098.75
2023-05-19T00:28:38.067Z,101098.25
2023-05-19T00:30:00.618Z,101101.28
2023-05-19T00:31:24.491Z,101102.63
2023-05-19T00:32:48.001Z,101098.25
2023-05-19T00:34:10.466Z,101099.41
2023-05-19T00:35:31.630Z,101099.56
2023-05-19T00:36:53.902Z,101098.88
2023-05-19T00:38:16.917Z,101102.59
2023-05-19T00:39:39.006Z,101106.47
2023-05-19T00:41:00.495Z,101099.69
2023-05-19T00:42:22.983Z,101098.03
2023-05-19T00:43:44.384Z,101101.88
2023-05-19T00:45:08.097Z,101102.72
2023-05-19T00:46:31.085Z,101098.50
2023-05-19T00:47:53.963Z,101097.66
2023-05-19T00:49:16.089Z,101102.88
2023-05-19T00:50:37.332Z,101095.81
2023-05-19T00:52:00.990Z,101103.19
2023-05-19T00:53:24.848Z,101098.66
2023-05-19T00:54:47.744Z,101096.78
2023-05-19T00:56:09.031Z,101100.34
2023-05-19T00:57:31.359Z,101100.34
2023-05-19T00:58:52.444Z,101106.59
2023-05-19T01:00:16.426Z,101103.88
2023-05-19T01:01:38.803Z,101105.75
2023-05-19T01:03:01.933Z,101100.50
2023-05-19T01:04:25.732Z,101101.19
2023-05-19T01:05:47.722Z,101100.19
2023-05-19T01:07:10.598Z,101100.19
2023-05-19T01:08:32.833Z,101097.34
2023-05-19T01:09:55.073Z,101092.09
2023-05-19T01:11:17.298Z,101094.47
2023-05-19T01:12:38.712Z,101094.31
2023-05-19T01:14:01.013Z,101094.31
2023-05-19T01:15:23.073Z,101097.53
2023-05-19T01:16:50.044Z,101098.53
2023-05-19T01:18:16.842Z,101094.84
2023-05-19T01:19:56.445Z,101098.19
2023-05-19T01:21:36.615Z,101094.50
2023-05-19T01:23:27.752Z,101105.28
2023-05-19T01:25:31.831Z,101108.81
2023-05-19T01:27:14.776Z,101104.28
2023-05-19T01:29:04.431Z,101104.97
2023-05-19T01:30:32.420Z,101101.25
2023-05-19T01:31:57.004Z,101101.09
2023-05-19T01:33:19.389Z,101106.00
2023-05-19T01:34:45.588Z,101102.28
2023-05-19T01:36:10.353Z,101104.81
2023-05-19T01:37:32.310Z,101101.97
2023-05-19T01:38:57.714Z,101103.66
2023-05-19T01:40:20.134Z,101101.66
2023-05-19T01:41:43.645Z,101106.03
2023-05-19T01:43:04.988Z,101110.41
2023-05-19T01:44:27.365Z,101103.00
2023-05-19T01:45:52.810Z,101107.38
2023-05-19T01:47:16.426Z,101100.13
2023-05-19T01:48:38.620Z,101103.53
2023-05-19T01:50:00.853Z,101103.00
2023-05-19T01:51:23.127Z,101103.66
2023-05-19T01:52:44.146Z,101104.69
2023-05-19T01:54:06.083Z,101103.66
2023-05-19T01:55:27.378Z,101094.91
2023-05-19T01:56:57.344Z,101108.38
2023-05-19T01:58:25.162Z,101101.31
2023-05-19T01:59:53.637Z,101105.03
2023-05-19T02:01:30.400Z,101109.72
2023-05-19T02:02:59.821Z,101100.97
2023-05-19T02:04:31.573Z,101100.28
2023-05-19T02:05:59.591Z,101101.28
2023-05-19T02:07:32.785Z,101096.88
2023-05-19T02:09:02.255Z,101098.91
2023-05-19T02:10:32.014Z,101100.06
2023-05-19T02:11:56.380Z,101095.69
2023-05-19T02:13:25.879Z,101095.84
2023-05-19T02:14:52.296Z,101094.19
2023-05-19T02:16:19.028Z,101094.03
2023-05-19T02:17:47.991Z,101091.47
2023-05-19T02:19:22.275Z,101103.94
2023-05-19T02:20:45.233Z,101096.72
2023-05-19T02:22:08.582Z,101097.38
2023-05-19T02:23:30.561Z,101094.03
2023-05-19T02:24:52.148Z,101097.56
2023-05-19T02:26:14.475Z,101097.22
2023-05-19T02:27:40.257Z,101099.91
2023-05-19T02:29:01.719Z,101092.66
2023-05-19T02:30:24.384Z,101089.13
2023-05-19T02:31:46.632Z,101079.03
2023-05-19T02:33:11.539Z,101090.66
2023-05-19T02:34:34.111Z,101087.47
2023-05-19T02:35:55.293Z,101091.50
2023-05-19T02:37:18.884Z,101088.81
2023-05-19T02:38:41.488Z,101090.66
2023-05-19T02:40:02.664Z,101081.88
2023-05-19T02:41:25.077Z,101088.81
2023-05-19T02:42:47.336Z,101085.28
2023-05-19T02:44:09.007Z,101086.09
2023-05-19T02:45:32.172Z,101081.59
2023-05-19T02:46:53.400Z,101081.75
2023-05-19T02:48:17.910Z,101085.13
2023-05-19T02:49:38.952Z,101075.16
2023-05-19T02:51:00.855Z,101086.66
2023-05-19T02:52:21.397Z,101085.41
2023-05-19T02:53:44.172Z,101084.44
2023-05-19T02:55:06.153Z,101081.75
2023-05-19T02:56:28.315Z,101078.88
2023-05-19T02:57:52.633Z,101079.72
2023-05-19T02:59:14.026Z,101081.59
2023-05-19T03:00:36.085Z,101083.25
2023-05-19T03:02:02.132Z,101079.72
2023-05-19T03:03:26.233Z,101087.81
2023-05-19T03:04:47.471Z,101073.31
2023-05-19T03:06:10.004Z,101085.81
2023-05-19T03:07:31.335Z,101084.09
2023-05-19T03:08:56.114Z,101087.47
2023-05-19T03:10:18.623Z,101086.47
2023-05-19T03:12:06.733Z,101087.47
2023-05-19T03:13:28.883Z,101091.84
2023-05-19T03:14:51.479Z,101089.84
2023-05-19T03:16:15.577Z,101085.28
2023-05-19T03:17:36.744Z,101087.97
2023-05-19T03:19:00.841Z,101085.97
2023-05-19T03:20:23.419Z,101090.19
2023-05-19T03:21:51.451Z,101089.19
2023-05-19T03:23:13.617Z,101093.56
2023-05-19T03:24:35.286Z,101086.31
2023-05-19T03:25:57.965Z,101090.53
2023-05-19T03:27:19.360Z,101087.69
2023-05-19T03:28:50.928Z,101087.53
2023-05-19T03:30:13.547Z,101092.75
2023-05-19T03:31:52.221Z,101092.59
2023-05-19T03:33:20.412Z,101087.69
2023-05-19T03:34:42.960Z,101086.72
2023-05-19T03:36:08.148Z,101086.38
2023-05-19T03:37:33.794Z,101082.66
2023-05-19T03:39:01.289Z,101077.09
2023-05-19T03:40:27.377Z,101078.78
2023-05-19T03:41:59.301Z,101084.50
2023-05-19T03:43:20.642Z,101083.19
2023-05-19T03:44:48.835Z,101074.91
2023-05-19T03:46:11.405Z,101076.41
2023-05-19T03:47:50.650Z,101080.81
2023-05-19T03:49:31.896Z,101080.81
2023-05-19T03:51:35.010Z,101082.69
2023-05-19T03:53:17.693Z,101087.22
2023-05-19T03:54:39.854Z,101087.06
2023-05-19T03:56:01.954Z,101090.44
2023-05-19T03:57:24.161Z,101083.88
2023-05-19T03:58:47.137Z,101085.53
2023-05-19T04:00:12.424Z,101087.41
2023-05-19T04:01:33.586Z,101089.06
2023-05-19T04:02:55.898Z,101091.63
2023-05-19T04:04:18.397Z,101087.06
2023-05-19T04:05:40.301Z,101085.19
2023-05-19T04:07:03.663Z,101089.25
2023-05-19T04:08:26.238Z,101092.44
2023-05-19T04:09:59.518Z,101091.47
2023-05-19T04:11:26.961Z,101085.03
2023-05-19T04:12:48.521Z,101089.59
2023-05-19T04:14:11.708Z,101080.66
2023-05-19T04:15:34.257Z,101084.53
2023-05-19T04:16:56.572Z,101088.44
2023-05-19T04:18:17.777Z,101093.19
2023-05-19T04:19:40.390Z,101089.97
2023-05-19T04:21:01.913Z,101093.69
2023-05-19T04:22:25.375Z,101099.09
2023-05-19T04:23:47.467Z,101101.78
2023-05-19T04:25:10.332Z,101094.50
2023-05-19T04:26:34.652Z,101100.72
2023-05-19T04:27:58.029Z,101096.19
2023-05-19T04:29:20.707Z,101096.16
2023-05-19T04:30:42.659Z,101091.91
2023-05-19T04:32:06.914Z,101090.56
2023-05-19T04:33:29.978Z,101088.50
2023-05-19T04:34:51.906Z,101089.47
2023-05-19T04:36:21.564Z,101086.09
2023-05-19T04:37:46.692Z,101083.72
2023-05-19T04:39:12.287Z,101086.72
2023-05-19T04:40:37.287Z,101083.00
2023-05-19T04:41:58.604Z,101083.31
2023-05-19T04:43:22.407Z,101084.81
2023-05-19T04:44:50.128Z,101086.31
2023-05-19T04:46:13.912Z,101086.31
2023-05-19T04:47:38.420Z,101085.63
2023-05-19T04:49:06.969Z,101094.41
2023-05-19T04:50:31.318Z,101093.25
2023-05-19T04:51:55.501Z,101097.47
2023-05-19T04:53:23.097Z,101092.53
2023-05-19T04:54:44.428Z,101093.34
2023-05-19T04:56:10.054Z,101100.78
2023-05-19T04:57:31.963Z,101096.69
2023-05-19T04:58:54.166Z,101100.91
2023-05-19T05:00:17.823Z,101098.50
2023-05-19T05:02:00.314Z,101090.03
2023-05-19T05:03:25.385Z,101102.00
2023-05-19T05:04:49.388Z,101098.94
2023-05-19T05:06:10.639Z,101098.41
2023-05-19T05:07:33.669Z,101099.91
2023-05-19T05:08:58.192Z,101097.19
2023-05-19T05:10:20.888Z,101097.19
2023-05-19T05:11:44.461Z,101100.75
2023-05-19T05:13:07.025Z,101103.66
2023-05-19T05:14:29.719Z,101096.53
2023-05-19T05:15:52.459Z,101104.66
2023-05-19T05:17:16.253Z,101103.97
2023-05-19T05:18:38.806Z,101106.06
2023-05-19T05:20:01.844Z,101107.41
2023-05-19T05:21:25.006Z,101112.31
2023-05-19T05:22:46.599Z,101109.16
2023-05-19T05:24:12.560Z,101108.69
2023-05-19T05:25:37.672Z,101113.41
2023-05-19T05:27:00.283Z,101115.44
2023-05-19T05:28:25.025Z,101102.28
2023-05-19T05:29:48.525Z,101107.19
2023-05-19T05:31:12.450Z,101102.81
2023-05-19T05:32:36.273Z,101105.69
2023-05-19T05:34:08.172Z,101105.03
2023-05-19T05:35:31.037Z,101105.88
2023-05-19T05:36:53.832Z,101102.97
2023-05-19T05:38:16.605Z,101103.66
2023-05-19T05:39:40.527Z,101100.78
2023-05-19T05:41:03.381Z,101101.31
2023-05-19T05:42:29.744Z,101100.47
2023-05-19T05:43:51.401Z,101102.50
2023-05-19T05:45:14.100Z,101101.66
2023-05-19T05:46:39.156Z,101096.06
2023-05-19T05:48:02.188Z,101098.41
2023-05-19T05:49:26.687Z,101101.63
2023-05-19T05:50:51.260Z,101100.25
2023-05-19T05:52:21.924Z,101094.59
2023-05-19T05:53:52.869Z,101105.00
2023-05-19T05:55:19.088Z,101108.16
2023-05-19T05:56:43.273Z,101103.50
2023-05-19T05:58:06.487Z,101106.66
2023-05-19T05:59:29.799Z,101104.69
2023-05-19T06:00:51.987Z,101105.31
2023-05-19T06:02:13.661Z,101099.53
2023-05-19T06:03:38.203Z,101112.28
2023-05-19T06:05:02.739Z,101104.75
2023-05-19T06:06:23.938Z,101107.19
2023-05-19T06:07:47.667Z,101115.41
2023-05-19T06:09:22.110Z,101111.31
2023-05-19T06:10:48.717Z,101114.97
2023-05-19T06:12:12.408Z,101115.13
2023-05-19T06:13:44.340Z,101106.34
2023-05-19T06:15:17.330Z,101116.06
2023-05-19T06:16:51.504Z,101117.78
2023-05-19T06:18:13.973Z,101118.78
2023-05-19T06:19:36.156Z,101117.09
2023-05-19T06:20:58.302Z,101122.53
2023-05-19T06:22:19.427Z,101122.16
2023-05-19T06:23:41.967Z,101109.44
2023-05-19T06:25:05.873Z,101122.44
2023-05-19T06:26:30.978Z,101127.47
2023-05-19T06:27:54.800Z,101126.66
2023-05-19T06:29:20.551Z,101116.84
2023-05-19T06:30:44.365Z,101120.75
2023-05-19T06:32:16.888Z,101124.31
2023-05-19T06:33:39.149Z,101122.16
2023-05-19T06:35:01.633Z,101122.81
2023-05-19T06:36:23.884Z,101122.81
2023-05-19T06:37:48.414Z,101131.13
2023-05-19T06:39:11.053Z,101123.53
2023-05-19T06:40:37.129Z,101131.88
2023-05-19T06:42:00.878Z,101121.75
2023-05-19T06:43:44.165Z,101128.16
2023-05-19T06:45:21.938Z,101124.41
2023-05-19T06:46:48.101Z,101133.38
2023-05-19T06:48:10.836Z,101126.09
2023-05-19T06:49:33.600Z,101123.94
2023-05-19T06:50:57.467Z,101126.16
2023-05-19T06:52:20.202Z,101128.69
2023-05-19T06:53:42.618Z,101125.31
2023-05-19T06:55:04.632Z,101127.56
2023-05-19T06:56:28.010Z,101133.31
2023-05-19T06:57:53.046Z,101120.34
2023-05-19T06:59:16.375Z,101128.94
2023-05-19T07:00:39.897Z,101127.75
2023-05-19T07:02:04.923Z,101136.69
2023-05-19T07:03:28.571Z,101133.16
2023-05-19T07:04:52.840Z,101123.81
2023-05-19T07:06:17.760Z,101131.88
2023-05-19T07:07:40.057Z,101134.06
2023-05-19T07:09:09.836Z,101135.75
2023-05-19T07:10:33.865Z,101137.94
2023-05-19T07:11:56.766Z,101135.50
2023-05-19T07:13:20.695Z,101138.50
2023-05-19T07:14:43.523Z,101141.84
2023-05-19T07:16:07.150Z,101140.66
2023-05-19T07:17:32.256Z,101137.97
2023-05-19T07:18:54.533Z,101143.56
2023-05-19T07:20:16.816Z,101136.81
2023-05-19T07:21:39.184Z,101143.94
2023-05-19T07:23:02.822Z,101143.44
2023-05-19T07:24:26.173Z,101138.22
2023-05-19T07:25:48.631Z,101143.25
2023-05-19T07:27:11.333Z,101139.34
2023-05-19T07:28:35.822Z,101137.09
2023-05-19T07:29:57.723Z,101143.00
2023-05-19T07:31:22.778Z,101133.81
2023-05-19T07:32:44.942Z,101138.03
2023-05-19T07:34:06.985Z,101142.25
2023-05-19T07:35:28.687Z,101143.84
2023-05-19T07:36:51.640Z,101141.78
2023-05-19T07:38:15.514Z,101147.22
2023-05-19T07:39:37.862Z,101139.25
2023-05-19T07:41:00.513Z,101142.50
2023-05-19T07:42:25.712Z,101137.19
2023-05-19T07:44:13.502Z,101139.22
2023-05-19T07:45:36.013Z,101139.44
2023-05-19T07:46:58.220Z,101135.22
2023-05-19T07:48:24.792Z,101138.47
2023-05-19T07:49:49.075Z,101149.44
2023-05-19T07:51:14.719Z,101135.44
2023-05-19T07:52:37.316Z,101144.59
2023-05-19T07:54:08.521Z,101147.50
2023-05-19T07:55:30.539Z,101149.72
2023-05-19T07:56:55.672Z,101144.16
2023-05-19T07:58:18.063Z,101147.25
2023-05-19T07:59:50.787Z,101145.94
2023-05-19T08:01:13.023Z,101134.81
2023-05-19T08:02:39.764Z,101142.03
2023-05-19T08:04:01.823Z,101142.88
2023-05-19T08:05:30.677Z,101147.06
2023-05-19T08:06:53.292Z,101151.47
2023-05-19T08:08:16.997Z,101147.19
2023-05-19T08:09:43.420Z,101146.00
2023-05-19T08:11:06.807Z,101142.91
2023-05-19T08:12:34.312Z,101140.63
2023-05-19T08:13:59.151Z,101139.72
2023-05-19T08:15:28.581Z,101127.47
2023-05-19T08:16:51.921Z,101121.69
2023-05-19T08:18:24.832Z,101139.94
2023-05-19T08:19:47.147Z,101141.97
2023-05-19T08:21:32.036Z,101143.38
2023-05-19T08:22:54.954Z,101141.25
2023-05-19T08:24:17.338Z,101137.00
2023-05-19T08:25:39.570Z,101136.97
2023-05-19T08:27:01.988Z,101131.66
2023-05-19T08:28:23.929Z,101131.94
2023-05-19T08:29:46.137Z,101139.06
2023-05-19T08:31:28.519Z,101121.44
2023-05-19T08:32:51.510Z,101135.31
2023-05-19T08:34:13.752Z,101136.47
2023-05-19T08:35:35.916Z,101131.78
2023-05-19T08:36:59.969Z,101128.16
2023-05-19T08:38:22.404Z,101137.28
2023-05-19T08:39:46.075Z,101136.97
2023-05-19T08:41:32.484Z,101129.28
2023-05-19T08:42:58.615Z,101127.16
2023-05-19T08:44:20.910Z,101133.44
2023-05-19T08:45:46.647Z,101139.47
2023-05-19T08:47:14.120Z,101132.56
2023-05-19T08:48:43.552Z,101129.06
2023-05-19T08:50:13.232Z,101138.16
2023-05-19T08:52:03.417Z,101125.84
2023-05-19T08:53:33.198Z,101131.16
2023-05-19T08:55:10.023Z,101123.91
2023-05-19T08:56:36.472Z,101126.84
2023-05-19T08:58:13.244Z,101119.06
2023-05-19T09:01:41.941Z,101128.75
2023-05-19T09:03:18.269Z,101127.28
2023-05-19T09:04:48.153Z,101128.13
2023-05-19T09:06:12.726Z,101123.09
2023-05-19T09:07:37.978Z,101129.44
2023-05-19T09:09:04.204Z,101122.53
2023-05-19T09:10:29.335Z,101133.63
2023-05-19T09:11:51.463Z,101131.72
2023-05-19T09:13:13.875Z,101119.31
2023-05-19T09:14:41.691Z,101133.75
2023-05-19T09:16:05.544Z,101127.19
2023-05-19T09:17:27.882Z,101132.00
2023-05-19T09:19:13.269Z,101125.16
2023-05-19T09:20:40.464Z,101125.41
2023-05-19T09:22:04.904Z,101118.72
2023-05-19T09:23:37.498Z,101130.59
2023-05-19T09:25:01.903Z,101122.34
2023-05-19T09:26:27.789Z,101125.44
2023-05-19T09:28:06.066Z,101122.88
2023-05-19T09:29:28.792Z,101111.84
2023-05-19T09:31:10.061Z,101118.31
2023-05-19T09:32:32.405Z,101129.75
2023-05-19T09:34:00.619Z,101129.22
2023-05-19T09:35:25.302Z,101129.81
2023-05-19T09:37:00.618Z,101132.94
2023-05-19T09:38:27.078Z,101125.34
2023-05-19T09:39:52.313Z,101124.25
2023-05-19T09:41:18.949Z,101117.16
2023-05-19T09:42:49.809Z,101129.34
2023-05-19T09:44:23.416Z,101110.63
2023-05-19T09:45:47.479Z,101110.78
2023-05-19T09:47:11.427Z,101120.00
2023-05-19T09:48:34.733Z,101126.94
2023-05-19T09:50:01.800Z,101118.56
2023-05-19T09:51:23.959Z,101091.94
2023-05-19T09:52:50.480Z,101103.50
2023-05-19T09:54:47.048Z,101106.47
2023-05-19T09:56:10.434Z,101100.22
2023-05-19T09:57:39.538Z,101099.94
2023-05-19T09:59:02.929Z,101103.50
2023-05-19T10:03:29.404Z,101079.66
2023-05-19T10:04:53.547Z,101097.78
2023-05-19T10:06:17.828Z,101097.72
2023-05-19T10:07:44.740Z,101092.06
2023-05-19T10:09:07.879Z,101095.41
2023-05-19T10:10:49.937Z,101090.91
2023-05-19T10:12:16.222Z,101095.69
2023-05-19T10:13:40.066Z,101088.66
2023-05-19T10:15:02.904Z,101085.94
2023-05-19T10:16:29.591Z,101092.63
2023-05-19T10:17:52.831Z,101088.00
2023-05-19T10:19:19.386Z,101080.59
2023-05-19T10:21:35.232Z,101093.00
2023-05-19T10:22:59.346Z,101078.28
2023-05-19T10:24:22.162Z,101075.97
2023-05-19T10:26:05.267Z,101083.03
2023-05-19T10:27:29.700Z,101087.22
2023-05-19T10:29:28.832Z,101087.53
2023-05-19T10:31:12.177Z,101076.78
2023-05-19T10:32:35.849Z,101080.78
2023-05-19T10:40:22.670Z,101090.38
2023-05-19T10:42:19.229Z,101084.66
2023-05-19T10:44:29.238Z,101094.16
2023-05-19T10:46:20.373Z,101073.00
2023-05-19T10:48:32.442Z,101090.66
2023-05-19T10:50:19.515Z,101094.66
2023-05-19T10:51:46.871Z,101090.41
2023-05-19T10:53:19.474Z,101091.50
2023-05-19T10:54:44.030Z,101087.69
2023-05-19T10:56:53.689Z,101104.72
2023-05-19T10:58:17.605Z,101085.22
2023-05-19T10:59:40.162Z,101093.03
2023-05-19T11:01:02.987Z,101105.25
2023-05-19T11:03:36.676Z,101086.22
2023-05-19T11:05:30.313Z,101088.94
2023-05-19T11:07:06.349Z,101092.50
2023-05-19T11:08:34.656Z,101096.25
2023-05-19T11:10:08.357Z,101098.31
2023-05-19T11:11:51.301Z,101098.00
2023-05-19T11:13:42.499Z,101086.78
2023-05-19T11:15:05.631Z,101095.53
2023-05-19T11:16:53.901Z,101093.94
2023-05-19T11:23:49.886Z,101096.38
2023-05-19T11:31:58.739Z,101074.72
2023-05-19T11:39:56.160Z,101076.16
2023-05-19T11:44:15.248Z,101074.09
2023-05-19T11:45:40.998Z,101076.25
2023-05-19T11:48:07.852Z,101094.31
2023-05-19T11:56:42.039Z,101092.78
2023-05-19T11:58:06.213Z,101093.88
2023-05-19T12:00:40.230Z,101097.06
2023-05-19T12:02:15.918Z,101088.91
2023-05-19T12:03:38.514Z,101090.19
2023-05-19T12:05:09.748Z,101071.75
2023-05-19T12:06:39.704Z,101088.78
2023-05-19T12:08:13.687Z,101078.75
2023-05-19T12:09:38.859Z,101087.00
2023-05-19T12:11:04.999Z,101092.09
2023-05-19T12:12:35.589Z,101092.34
2023-05-19T12:14:00.376Z,101086.50
2023-05-19T12:15:23.280Z,101090.56
2023-05-19T12:16:45.895Z,101088.09
2023-05-19T12:34:03.558Z,101095.31
2023-05-19T12:35:44.936Z,101081.66
2023-05-19T12:39:52.029Z,101085.53
2023-05-19T12:41:16.937Z,101088.22
2023-05-19T12:43:29.019Z,101088.78
2023-05-19T12:48:40.739Z,101090.69
2023-05-19T13:06:50.898Z,101091.81
2023-05-19T13:08:14.924Z,101081.97
2023-05-19T13:10:15.822Z,101091.34
2023-05-19T13:11:38.892Z,101084.25
2023-05-19T13:13:03.308Z,101080.25
2023-05-19T13:15:15.398Z,101082.56
2023-05-19T13:17:39.132Z,101079.91
2023-05-19T13:19:01.746Z,101082.69
2023-05-19T13:20:25.578Z,101081.28
2023-05-19T13:21:52.246Z,101085.28
2023-05-19T13:23:15.889Z,101082.63
2023-05-19T13:24:44.061Z,101086.69
2023-05-19T13:26:09.467Z,101082.63
2023-05-19T13:27:31.145Z,101074.06
2023-05-19T13:28:53.809Z,101086.06
2023-05-19T13:30:52.920Z,101073.97
2023-05-19T13:32:19.160Z,101085.34
2023-05-19T13:33:56.753Z,101068.78
2023-05-19T13:38:02.122Z,101069.59
2023-05-19T13:39:47.204Z,101077.09
2023-05-19T13:42:45.726Z,101083.13
2023-05-19T13:44:50.495Z,101060.56
2023-05-19T13:48:46.574Z,101070.13
2023-05-19T13:55:33.781Z,101077.13
2023-05-19T14:00:44.549Z,101087.16
2023-05-19T14:02:40.176Z,101077.44
2023-05-19T14:07:49.806Z,101074.31
2023-05-19T14:10:25.281Z,101078.09
2023-05-19T14:13:42.730Z,101072.06
2023-05-19T14:15:09.845Z,101061.66
2023-05-19T14:16:35.482Z,101066.09
2023-05-19T14:18:21.753Z,101062.13
2023-05-19T14:19:44.085Z,101063.16
2023-05-19T14:21:42.380Z,101061.22
2023-05-19T14:23:04.522Z,101073.13
2023-05-19T14:24:26.818Z,101054.41
2023-05-19T14:25:49.025Z,101063.63
2023-05-19T14:27:11.185Z,101061.34
2023-05-19T14:28:32.387Z,101071.44
2023-05-19T14:29:58.268Z,101063.69
2023-05-19T14:31:29.316Z,101069.59
2023-05-19T14:32:58.120Z,101059.34
2023-05-19T14:34:21.237Z,101065.44
2023-05-19T14:35:43.651Z,101057.03
2023-05-19T14:37:06.252Z,101064.63
2023-05-19T14:38:29.413Z,101065.47
2023-05-19T14:39:52.109Z,101065.47
2023-05-19T14:41:13.801Z,101059.19
2023-05-19T14:42:35.860Z,101070.28
2023-05-19T14:43:59.260Z,101070.28
2023-05-19T14:45:25.815Z,101062.09
2023-05-19T14:46:47.154Z,101063.13
2023-05-19T14:48:10.953Z,101065.22
2023-05-19T14:49:33.288Z,101062.75
2023-05-19T14:50:55.929Z,101060.44
2023-05-19T14:52:18.060Z,101059.38
2023-05-19T14:53:40.387Z,101058.31
2023-05-19T14:55:02.951Z,101064.59
2023-05-19T14:56:34.048Z,101066.44
2023-05-19T14:58:28.478Z,101065.38
2023-05-19T14:59:51.922Z,101060.94
2023-05-19T15:01:15.441Z,101072.47
2023-05-19T15:02:37.429Z,101060.91
2023-05-19T15:04:06.058Z,101067.56
2023-05-19T15:05:35.830Z,101056.47
2023-05-19T15:07:10.629Z,101059.81
2023-05-19T15:08:33.405Z,101062.75
2023-05-19T15:09:55.651Z,101066.09
2023-05-19T15:11:17.822Z,101054.16
2023-05-19T15:12:40.172Z,101063.56
2023-05-19T15:14:01.251Z,101050.78
2023-05-19T15:15:23.548Z,101065.72
2023-05-19T15:16:47.395Z,101061.72
2023-05-19T15:18:09.685Z,101063.19
2023-05-19T15:19:31.826Z,101073.53
2023-05-19T15:20:53.890Z,101067.66
2023-05-19T15:22:25.650Z,101066.81
2023-05-19T15:23:50.348Z,101064.72
2023-05-19T15:25:15.380Z,101058.88
2023-05-19T15:26:41.017Z,101057.63
2023-05-19T15:28:04.023Z,101053.66
2023-05-19T15:29:26.028Z,101055.13
2023-05-19T15:30:48.424Z,101062.91
2023-05-19T15:32:14.679Z,101057.28
2023-05-19T15:33:37.509Z,101063.78
2023-05-19T15:34:59.621Z,101061.06
2023-05-19T15:36:27.539Z,101053.50
2023-05-19T15:37:51.815Z,101057.69
2023-05-19T15:39:37.550Z,101048.91
2023-05-19T15:41:00.072Z,101042.41
2023-05-19T15:42:22.286Z,101056.44
2023-05-19T15:43:46.532Z,101050.56
2023-05-19T15:45:10.625Z,101045.34
2023-05-19T15:46:41.535Z,101052.69
2023-05-19T15:48:09.081Z,101050.38
2023-05-19T15:49:32.289Z,101042.81
2023-05-19T15:50:55.025Z,101040.50
2023-05-19T15:52:17.473Z,101050.19
2023-05-19T15:53:42.913Z,101040.94
2023-05-19T15:55:04.427Z,101041.34
2023-05-19T15:56:26.832Z,101046.78
2023-05-19T15:57:49.039Z,101049.72
2023-05-19T15:59:10.179Z,101040.06
2023-05-19T16:00:45.549Z,101039.03
2023-05-19T16:02:08.288Z,101042.59
2023-05-19T16:03:31.928Z,101042.19
2023-05-19T16:04:54.169Z,101041.75
2023-05-19T16:06:16.523Z,101043.00
2023-05-19T16:07:42.325Z,101045.31
2023-05-19T16:09:04.457Z,101047.38
2023-05-19T16:10:26.522Z,101043.41
2023-05-19T16:11:49.806Z,101041.47
2023-05-19T16:13:12.045Z,101039.59
2023-05-19T16:14:36.644Z,101039.97
2023-05-19T16:15:59.089Z,101047.50
2023-05-19T16:17:20.084Z,101040.78
2023-05-19T16:18:50.216Z,101036.16
2023-05-19T16:20:13.016Z,101043.69
2023-05-19T16:21:33.939Z,101031.53
2023-05-19T16:22:58.579Z,101039.03
2023-05-19T16:24:20.766Z,101037.38
2023-05-19T16:25:45.607Z,101031.28
2023-05-19T16:27:07.288Z,101043.66
2023-05-19T16:28:31.360Z,101045.97
2023-05-19T16:29:54.876Z,101032.34
2023-05-19T16:31:17.172Z,101037.97
2023-05-19T16:32:39.716Z,101035.69
2023-05-19T16:34:19.940Z,101042.56
2023-05-19T16:35:42.056Z,101040.44
2023-05-19T16:37:13.840Z,101040.22
2023-05-19T16:38:35.960Z,101041.03
2023-05-19T16:39:57.296Z,101037.25
2023-05-19T16:41:19.430Z,101037.84
2023-05-19T16:42:48.693Z,101039.09
2023-05-19T16:44:14.761Z,101040.69
2023-05-19T16:45:36.150Z,101032.13
2023-05-19T16:47:01.331Z,101033.53
2023-05-19T16:48:28.026Z,101044.56
2023-05-19T16:50:00.472Z,101041.41
2023-05-19T16:51:27.754Z,101042.00
2023-05-19T16:52:50.052Z,101035.28
2023-05-19T16:54:12.430Z,101032.13
2023-05-19T16:55:33.953Z,101041.66
2023-05-19T16:56:56.128Z,101034.94
2023-05-19T16:58:17.472Z,101040.97
2023-05-19T16:59:49.865Z,101041.75
2023-05-19T17:01:17.494Z,101044.41
2023-05-19T17:02:41.215Z,101044.78
2023-05-19T17:04:21.659Z,101041.78
2023-05-19T17:05:45.113Z,101041.78
2023-05-19T17:07:07.225Z,101045.91
2023-05-19T17:08:29.558Z,101046.50
2023-05-19T17:09:53.937Z,101047.72
2023-05-19T17:11:17.414Z,101038.47
2023-05-19T17:12:39.779Z,101044.50
2023-05-19T17:14:02.148Z,101047.78
2023-05-19T17:15:24.249Z,101036.66
2023-05-19T17:16:46.805Z,101043.28
2023-05-19T17:18:08.953Z,101035.94
2023-05-19T17:19:31.647Z,101039.00
2023-05-19T17:20:55.609Z,101043.81
2023-05-19T17:22:17.005Z,101035.41
2023-05-19T17:23:39.405Z,101041.66
2023-05-19T17:25:13.894Z,101042.25
2023-05-19T17:26:45.333Z,101039.44
2023-05-19T17:28:18.384Z,101043.63
2023-05-19T17:29:42.665Z,101043.09
2023-05-19T17:31:13.093Z,101028.63
2023-05-19T17:32:39.533Z,101042.00
2023-05-19T17:34:15.470Z,101042.75
2023-05-19T17:35:39.092Z,101053.41
2023-05-19T17:37:06.232Z,101051.66
2023-05-19T17:38:28.742Z,101046.78
2023-05-19T17:39:51.149Z,101056.41
2023-05-19T17:41:22.053Z,101063.91
2023-05-19T17:42:44.538Z,101051.09
2023-05-19T17:44:07.585Z,101053.00
2023-05-19T17:45:57.262Z,101055.22
2023-05-19T17:47:23.803Z,101051.19
2023-05-19T17:48:48.837Z,101056.59
2023-05-19T17:50:12.245Z,101050.91
2023-05-19T17:51:34.796Z,101047.28
2023-05-19T17:52:58.964Z,101057.75
2023-05-19T17:54:26.335Z,101058.13
2023-05-19T17:55:52.668Z,101054.75
2023-05-19T17:57:18.655Z,101063.72
2023-05-19T17:58:41.592Z,101056.66
2023-05-19T18:00:05.008Z,101055.78
2023-05-19T18:01:30.980Z,101056.53
2023-05-19T18:03:06.213Z,101052.34
2023-05-19T18:04:35.424Z,101049.13
2023-05-19T18:06:02.197Z,101058.59
2023-05-19T18:07:25.473Z,101045.31
2023-05-19T18:08:51.633Z,101058.97
2023-05-19T18:10:16.944Z,101047.84
2023-05-19T18:11:39.008Z,101051.38
2023-05-19T18:13:00.507Z,101050.41
2023-05-19T18:14:23.003Z,101052.94